KFDR/FDR METAR and TAF weather

Enter ICAO airport designator
Station Type Date Time Source
KFDR METAR 2022/06/29 00:53 UTC NOAA

KFDR 290053Z AUTO 15008KT 10SM CLR 28/15 A3010 RMK AO2 SLP176 T02830150 $


Station Type Date Time Source
KFDR Decoded METAR 2022/06/29 00:53 UTC NOAA

FREDERICK MUNICIPAL AIRPORT, OK, United States (KFDR) 34-21N 98-59W 377M
Jun 28, 2022 - 08:53 PM EDT / 2022.06.29 0053 UTC
Wind: from the SSE (150 degrees) at 9 MPH (8 KT):0
Visibility: 10 mile(s):0
Sky conditions: clear
Temperature: 82.9 F (28.3 C)
Dew Point: 59.0 F (15.0 C)
Relative Humidity: 44%
Pressure (altimeter): 30.1 in. Hg (1019 hPa)
ob: KFDR 290053Z AUTO 15008KT 10SM CLR 28/15 A3010 RMK AO2 SLP176 T02830150
cycle: 1

Station Type Date Time Source
KFDR TAF UTC NOAA

Error!

Example: see airport list